Airfield :
LOGIN :

Register | Disclaimer

   EN    FR    IT 

 










Legend :    VFR   Marginal VFR   IFR   Intensive IFR   Very Intensive IFR
Visi :
Ceiling :
>= 8 km
>= 3000ft
5 to 8 km
1000 to 3000 ft
1500m to 5 km
500 to 1000 ft
800 to 1500m
200 to 500 ft
< 800m
< 200 ft
Symbols :   Thunderstorms  Fog  Heavy snow  Heavy precipitations  Wind > 20 kt
SIGMETs :     Misc.  Thunderstorms  Icing  Turbulence  Mountain Waves  Volcanic Ashes






- Airport Elevation : 3 ft
- IATA code : LWR


EHLW - Leuuwarden Air Base

CURRENT METAR :
  • 252055Z AUTO 21006KT 9999 SCT040 OVC061 11/09 Q1009 BLU

EXPIRED METARs :
  • 252025Z AUTO 21006KT 9999 FEW044 SCT049 OVC056 11/09 Q1010 BLU
  • 251955Z AUTO 21004KT 9999 OVC057 11/09 Q1010 BLU
  • 251925Z AUTO 19005KT 160V220 9999 OVC060 11/09 Q1010 BLU
  • 251855Z AUTO 25003KT 210V280 9999 DZ SCT027 BKN049 OVC053 11/09 Q1011 BLU
  • 251825Z AUTO 20005KT 9999 OVC210 11/08 Q1011 BLU

TAF TAF EHLW
Valid from the 25 at 21:00 until the 26 at 09:00 UTC


252051Z 2521/2609 21006KT 9999 BKN030 BKN060
BECMG 2523/2601 21012KT
BECMG 2604/2606 20015G25KT
BECMG 2607/2609 4500 RA SCT010 OVC015
TEMPO 2608/2609 3500 RADZ SHRA SCT007 BKN010 SCT015CB



MET'MAP, your aeronautical weather chart ! - Copyright ORBIFLY December 2007 - Disclaimer

ORBIFLY MET'MAP TEAM :

Programming & Development : Alexandra Zaïnal
Original concept : Baudouin d'Aumeries
Technical & hardware support : Manuel Goepfert
Assistance : Marc-Olivier Méhu




SOURCES & CREDITS :

   NOAA